sensor_id;sensor_type;location;lat;lon;timestamp;pressure;altitude;pressure_sealevel;temperature;humidity
30744;BME280;17486;46.738;7.622;2022-07-29T00:00:34;95158.50;;;21.85;55.40
30744;BME280;17486;46.738;7.622;2022-07-29T00:03:00;95125.72;;;21.68;56.69
30744;BME280;17486;46.738;7.622;2022-07-29T00:05:25;95159.81;;;21.99;56.41
30744;BME280;17486;46.738;7.622;2022-07-29T00:07:50;95176.47;;;22.10;55.80
30744;BME280;17486;46.738;7.622;2022-07-29T00:10:16;95120.16;;;21.90;54.19
30744;BME280;17486;46.738;7.622;2022-07-29T00:12:41;95123.78;;;21.89;54.46
30744;BME280;17486;46.738;7.622;2022-07-29T00:15:07;95167.16;;;22.06;55.39
30744;BME280;17486;46.738;7.622;2022-07-29T00:20:54;95146.34;;;21.93;53.72
30744;BME280;17486;46.738;7.622;2022-07-29T00:23:20;95147.69;;;21.79;54.74
30744;BME280;17486;46.738;7.622;2022-07-29T00:25:45;95106.88;;;21.44;56.47
30744;BME280;17486;46.738;7.622;2022-07-29T00:28:11;95137.63;;;21.55;56.97
30744;BME280;17486;46.738;7.622;2022-07-29T00:30:36;95104.41;;;21.32;57.38
30744;BME280;17486;46.738;7.622;2022-07-29T00:33:02;95142.94;;;21.45;57.32
30744;BME280;17486;46.738;7.622;2022-07-29T00:35:27;95131.56;;;21.34;57.12
30744;BME280;17486;46.738;7.622;2022-07-29T00:38:15;95099.34;;;21.11;56.97
30744;BME280;17486;46.738;7.622;2022-07-29T00:40:41;95124.59;;;21.33;56.95
30744;BME280;17486;46.738;7.622;2022-07-29T00:43:08;95110.41;;;21.25;57.11
30744;BME280;17486;46.738;7.622;2022-07-29T00:45:33;95140.16;;;21.36;57.33
30744;BME280;17486;46.738;7.622;2022-07-29T00:47:59;95140.97;;;21.47;57.23
30744;BME280;17486;46.738;7.622;2022-07-29T00:50:25;95127.03;;;21.55;56.82
30744;BME280;17486;46.738;7.622;2022-07-29T00:52:51;95124.19;;;21.66;56.01
30744;BME280;17486;46.738;7.622;2022-07-29T00:55:17;95096.94;;;21.56;56.02
30744;BME280;17486;46.738;7.622;2022-07-29T00:57:44;95127.16;;;21.81;55.45
30744;BME280;17486;46.738;7.622;2022-07-29T01:00:14;95118.16;;;21.74;54.93
30744;BME280;17486;46.738;7.622;2022-07-29T01:02:40;95091.06;;;21.52;54.84
30744;BME280;17486;46.738;7.622;2022-07-29T01:05:06;95126.13;;;21.74;54.21
30744;BME280;17486;46.738;7.622;2022-07-29T01:07:33;95083.34;;;21.41;53.78
30744;BME280;17486;46.738;7.622;2022-07-29T01:10:02;95119.53;;;21.50;54.37
30744;BME280;17486;46.738;7.622;2022-07-29T01:12:30;95088.44;;;21.24;53.92
30744;BME280;17486;46.738;7.622;2022-07-29T01:15:00;95133.47;;;21.42;53.11
30744;BME280;17486;46.738;7.622;2022-07-29T01:20:12;95110.97;;;21.28;51.91
30744;BME280;17486;46.738;7.622;2022-07-29T01:30:58;95116.88;;;21.02;52.36
30744;BME280;17486;46.738;7.622;2022-07-29T01:33:26;95120.28;;;20.95;52.15
30744;BME280;17486;46.738;7.622;2022-07-29T01:36:13;95092.38;;;20.73;52.39
30744;BME280;17486;46.738;7.622;2022-07-29T01:38:42;95118.47;;;20.95;51.98
30744;BME280;17486;46.738;7.622;2022-07-29T01:41:15;95080.78;;;20.74;51.60
30744;BME280;17486;46.738;7.622;2022-07-29T01:43:47;95122.19;;;21.02;50.98
30744;BME280;17486;46.738;7.622;2022-07-29T01:46:20;95084.53;;;20.81;50.93
30744;BME280;17486;46.738;7.622;2022-07-29T01:48:55;95136.09;;;21.04;51.32
30744;BME280;17486;46.738;7.622;2022-07-29T01:51:33;95090.50;;;20.83;51.12
30744;BME280;17486;46.738;7.622;2022-07-29T01:56:56;95120.09;;;21.06;50.75
30744;BME280;17486;46.738;7.622;2022-07-29T01:59:24;95086.34;;;20.80;50.75
30744;BME280;17486;46.738;7.622;2022-07-29T02:01:52;95088.16;;;20.80;50.88
30744;BME280;17486;46.738;7.622;2022-07-29T02:04:19;95079.16;;;20.73;50.78
30744;BME280;17486;46.738;7.622;2022-07-29T02:06:46;95112.75;;;20.90;50.78
30744;BME280;17486;46.738;7.622;2022-07-29T02:09:14;95118.06;;;20.80;50.71
30744;BME280;17486;46.738;7.622;2022-07-29T02:11:43;95123.06;;;20.83;50.85
30744;BME280;17486;46.738;7.622;2022-07-29T02:14:12;95127.41;;;20.84;50.90
30744;BME280;17486;46.738;7.622;2022-07-29T02:16:40;95096.53;;;20.56;50.70
30744;BME280;17486;46.738;7.622;2022-07-29T02:19:06;95121.97;;;20.66;51.00
30744;BME280;17486;46.738;7.622;2022-07-29T02:21:34;95143.41;;;20.63;51.02
30744;BME280;17486;46.738;7.622;2022-07-29T02:24:02;95148.94;;;20.60;51.07
30744;BME280;17486;46.738;7.622;2022-07-29T02:26:29;95143.66;;;20.60;51.29
30744;BME280;17486;46.738;7.622;2022-07-29T02:28:57;95123.91;;;20.45;51.18
30744;BME280;17486;46.738;7.622;2022-07-29T02:31:28;95128.66;;;20.51;51.84
30744;BME280;17486;46.738;7.622;2022-07-29T02:33:55;95137.81;;;20.57;51.79
30744;BME280;17486;46.738;7.622;2022-07-29T02:36:22;95141.72;;;20.72;51.51
30744;BME280;17486;46.738;7.622;2022-07-29T02:38:49;95108.91;;;20.55;51.56
30744;BME280;17486;46.738;7.622;2022-07-29T02:41:19;95132.69;;;20.75;51.52
30744;BME280;17486;46.738;7.622;2022-07-29T02:43:47;95148.53;;;20.84;51.34
30744;BME280;17486;46.738;7.622;2022-07-29T02:46:19;95098.06;;;20.58;51.37
30744;BME280;17486;46.738;7.622;2022-07-29T02:48:53;95109.72;;;20.65;51.39
30744;BME280;17486;46.738;7.622;2022-07-29T02:51:25;95138.22;;;20.81;51.21
30744;BME280;17486;46.738;7.622;2022-07-29T02:53:54;95148.13;;;20.79;51.61
30744;BME280;17486;46.738;7.622;2022-07-29T02:56:25;95147.88;;;20.73;51.54
30744;BME280;17486;46.738;7.622;2022-07-29T02:58:58;95150.06;;;20.58;51.90
30744;BME280;17486;46.738;7.622;2022-07-29T03:01:29;95153.66;;;20.57;52.15
30744;BME280;17486;46.738;7.622;2022-07-29T03:03:57;95155.19;;;20.59;52.17
30744;BME280;17486;46.738;7.622;2022-07-29T03:06:26;95158.13;;;20.56;52.52
30744;BME280;17486;46.738;7.622;2022-07-29T03:08:53;95114.78;;;20.29;52.72
30744;BME280;17486;46.738;7.622;2022-07-29T03:11:20;95116.41;;;20.30;52.95
30744;BME280;17486;46.738;7.622;2022-07-29T03:13:46;95158.69;;;20.50;53.07
30744;BME280;17486;46.738;7.622;2022-07-29T03:16:12;95123.25;;;20.23;53.24
30744;BME280;17486;46.738;7.622;2022-07-29T03:18:39;95157.59;;;20.43;53.84
30744;BME280;17486;46.738;7.622;2022-07-29T03:21:04;95127.81;;;20.21;53.82
30744;BME280;17486;46.738;7.622;2022-07-29T03:23:30;95122.41;;;20.13;54.00
30744;BME280;17486;46.738;7.622;2022-07-29T03:25:56;95123.38;;;20.12;53.96
30744;BME280;17486;46.738;7.622;2022-07-29T03:28:22;95166.19;;;20.35;54.06
30744;BME280;17486;46.738;7.622;2022-07-29T03:30:48;95148.38;;;20.37;54.06
30744;BME280;17486;46.738;7.622;2022-07-29T03:33:14;95163.84;;;20.42;53.92
30744;BME280;17486;46.738;7.622;2022-07-29T03:35:39;95168.16;;;20.43;54.18
30744;BME280;17486;46.738;7.622;2022-07-29T03:38:05;95155.34;;;20.38;53.99
30744;BME280;17486;46.738;7.622;2022-07-29T03:40:38;95163.97;;;20.40;53.62
30744;BME280;17486;46.738;7.622;2022-07-29T03:43:08;95174.81;;;20.37;53.84
30744;BME280;17486;46.738;7.622;2022-07-29T03:45:35;95177.44;;;20.27;54.11
30744;BME280;17486;46.738;7.622;2022-07-29T03:48:05;95188.13;;;20.16;54.28
30744;BME280;17486;46.738;7.622;2022-07-29T03:50:32;95168.94;;;20.04;54.53
30744;BME280;17486;46.738;7.622;2022-07-29T03:52:58;95173.38;;;20.03;54.81
30744;BME280;17486;46.738;7.622;2022-07-29T03:57:50;95171.44;;;19.96;54.90
30744;BME280;17486;46.738;7.622;2022-07-29T04:00:16;95125.75;;;19.64;55.01
30744;BME280;17486;46.738;7.622;2022-07-29T04:02:42;95146.06;;;19.74;55.35
30744;BME280;17486;46.738;7.622;2022-07-29T04:05:12;95138.53;;;19.69;55.52
30744;BME280;17486;46.738;7.622;2022-07-29T04:07:38;95167.25;;;19.83;55.67
30744;BME280;17486;46.738;7.622;2022-07-29T04:10:03;95161.97;;;19.83;55.81
30744;BME280;17486;46.738;7.622;2022-07-29T04:12:29;95127.97;;;19.59;55.44
30744;BME280;17486;46.738;7.622;2022-07-29T04:14:54;95153.59;;;19.78;55.61
30744;BME280;17486;46.738;7.622;2022-07-29T04:17:20;95118.13;;;19.61;55.67
30744;BME280;17486;46.738;7.622;2022-07-29T04:19:45;95155.13;;;19.81;56.01
30744;BME280;17486;46.738;7.622;2022-07-29T04:22:10;95158.75;;;19.90;56.20
30744;BME280;17486;46.738;7.622;2022-07-29T04:24:36;95111.31;;;19.68;56.26
30744;BME280;17486;46.738;7.622;2022-07-29T04:27:01;95123.69;;;19.78;56.48
30744;BME280;17486;46.738;7.622;2022-07-29T04:29:27;95137.50;;;19.91;56.36
30744;BME280;17486;46.738;7.622;2022-07-29T04:31:52;95144.88;;;19.97;56.04
30744;BME280;17486;46.738;7.622;2022-07-29T04:34:17;95105.66;;;19.73;56.21
30744;BME280;17486;46.738;7.622;2022-07-29T04:36:43;95118.88;;;19.83;55.74
30744;BME280;17486;46.738;7.622;2022-07-29T04:39:08;95142.53;;;19.94;55.89
30744;BME280;17486;46.738;7.622;2022-07-29T04:41:35;95114.25;;;19.65;55.84
30744;BME280;17486;46.738;7.622;2022-07-29T04:44:00;95151.41;;;19.83;56.43
30744;BME280;17486;46.738;7.622;2022-07-29T04:46:30;95164.72;;;19.82;56.23
30744;BME280;17486;46.738;7.622;2022-07-29T04:48:55;95156.34;;;19.77;56.67
30744;BME280;17486;46.738;7.622;2022-07-29T04:51:21;95160.16;;;19.84;56.85
30744;BME280;17486;46.738;7.622;2022-07-29T04:53:46;95117.28;;;19.61;57.10
30744;BME280;17486;46.738;7.622;2022-07-29T04:56:11;95126.03;;;19.61;57.33
30744;BME280;17486;46.738;7.622;2022-07-29T04:58:37;95179.44;;;19.84;57.54
30744;BME280;17486;46.738;7.622;2022-07-29T05:01:04;95136.59;;;19.61;58.06
30744;BME280;17486;46.738;7.622;2022-07-29T05:03:29;95141.72;;;19.63;58.70
30744;BME280;17486;46.738;7.622;2022-07-29T05:05:55;95134.47;;;19.55;58.75
30744;BME280;17486;46.738;7.622;2022-07-29T05:08:20;95140.44;;;19.57;59.67
30744;BME280;17486;46.738;7.622;2022-07-29T05:10:46;95192.81;;;19.93;60.55
30744;BME280;17486;46.738;7.622;2022-07-29T05:13:11;95180.00;;;19.88;61.80
30744;BME280;17486;46.738;7.622;2022-07-29T05:15:37;95191.44;;;19.98;62.34
30744;BME280;17486;46.738;7.622;2022-07-29T05:18:03;95175.75;;;20.07;62.79
30744;BME280;17486;46.738;7.622;2022-07-29T05:20:29;95166.84;;;20.17;63.35
30744;BME280;17486;46.738;7.622;2022-07-29T05:22:57;95159.94;;;20.36;62.33
30744;BME280;17486;46.738;7.622;2022-07-29T05:25:23;95183.44;;;20.59;61.52
30744;BME280;17486;46.738;7.622;2022-07-29T05:27:49;95171.66;;;20.73;60.56
30744;BME280;17486;46.738;7.622;2022-07-29T05:30:14;95176.78;;;20.84;60.04
30744;BME280;17486;46.738;7.622;2022-07-29T05:32:40;95168.97;;;20.82;59.48
30744;BME280;17486;46.738;7.622;2022-07-29T05:35:06;95181.22;;;20.83;58.88
30744;BME280;17486;46.738;7.622;2022-07-29T05:37:31;95151.59;;;20.60;59.40
30744;BME280;17486;46.738;7.622;2022-07-29T05:39:56;95181.13;;;20.75;59.69
30744;BME280;17486;46.738;7.622;2022-07-29T05:42:22;95144.78;;;20.48;60.03
30744;BME280;17486;46.738;7.622;2022-07-29T05:44:48;95191.94;;;20.72;59.75
30744;BME280;17486;46.738;7.622;2022-07-29T05:47:13;95182.03;;;20.64;59.69
30744;BME280;17486;46.738;7.622;2022-07-29T05:49:38;95183.28;;;20.60;59.27
30744;BME280;17486;46.738;7.622;2022-07-29T05:52:04;95146.59;;;20.37;59.34
30744;BME280;17486;46.738;7.622;2022-07-29T05:54:30;95142.00;;;20.30;58.83
30744;BME280;17486;46.738;7.622;2022-07-29T05:56:55;95144.50;;;20.31;58.52
30744;BME280;17486;46.738;7.622;2022-07-29T05:59:21;95150.91;;;20.38;58.31
30744;BME280;17486;46.738;7.622;2022-07-29T06:01:46;95188.44;;;20.62;58.21
30744;BME280;17486;46.738;7.622;2022-07-29T06:04:12;95170.34;;;20.47;57.89
30744;BME280;17486;46.738;7.622;2022-07-29T06:06:37;95172.31;;;20.55;58.23
30744;BME280;17486;46.738;7.622;2022-07-29T06:09:02;95199.31;;;20.78;58.02
30744;BME280;17486;46.738;7.622;2022-07-29T06:11:28;95192.91;;;20.81;57.82
30744;BME280;17486;46.738;7.622;2022-07-29T06:13:53;95197.38;;;20.90;57.70
30744;BME280;17486;46.738;7.622;2022-07-29T06:16:19;95195.41;;;21.02;56.76
30744;BME280;17486;46.738;7.622;2022-07-29T06:18:45;95212.50;;;21.17;56.77
30744;BME280;17486;46.738;7.622;2022-07-29T06:21:10;95218.59;;;21.28;56.53
30744;BME280;17486;46.738;7.622;2022-07-29T06:23:39;95192.00;;;21.29;56.41
30744;BME280;17486;46.738;7.622;2022-07-29T06:26:05;95213.78;;;21.51;55.91
30744;BME280;17486;46.738;7.622;2022-07-29T06:28:31;95171.09;;;21.36;55.97
30744;BME280;17486;46.738;7.622;2022-07-29T06:30:56;95217.97;;;21.63;55.92
30744;BME280;17486;46.738;7.622;2022-07-29T06:33:22;95175.34;;;21.47;55.29
30744;BME280;17486;46.738;7.622;2022-07-29T06:35:48;95215.56;;;21.70;55.33
30744;BME280;17486;46.738;7.622;2022-07-29T06:38:14;95225.03;;;21.73;55.24
30744;BME280;17486;46.738;7.622;2022-07-29T06:40:44;95222.69;;;21.69;53.86
30744;BME280;17486;46.738;7.622;2022-07-29T06:43:26;95226.88;;;21.62;53.30
30744;BME280;17486;46.738;7.622;2022-07-29T06:45:51;95214.19;;;21.66;52.73
30744;BME280;17486;46.738;7.622;2022-07-29T06:48:17;95211.69;;;21.64;52.52
30744;BME280;17486;46.738;7.622;2022-07-29T06:50:42;95221.56;;;21.72;52.43
30744;BME280;17486;46.738;7.622;2022-07-29T06:53:08;95217.78;;;21.75;52.27
30744;BME280;17486;46.738;7.622;2022-07-29T06:55:33;95197.34;;;21.67;52.14
30744;BME280;17486;46.738;7.622;2022-07-29T06:57:58;95198.88;;;21.69;51.94
30744;BME280;17486;46.738;7.622;2022-07-29T07:00:24;95211.91;;;21.81;52.79
30744;BME280;17486;46.738;7.622;2022-07-29T07:02:50;95219.97;;;21.89;54.10
30744;BME280;17486;46.738;7.622;2022-07-29T07:05:15;95191.16;;;21.76;54.49
30744;BME280;17486;46.738;7.622;2022-07-29T07:07:41;95187.41;;;21.79;54.74
30744;BME280;17486;46.738;7.622;2022-07-29T07:10:07;95224.16;;;22.10;53.44
30744;BME280;17486;46.738;7.622;2022-07-29T07:12:32;95181.47;;;21.95;52.89
30744;BME280;17486;46.738;7.622;2022-07-29T07:14:57;95234.22;;;22.34;52.69
30744;BME280;17486;46.738;7.622;2022-07-29T07:17:23;95232.22;;;22.46;52.24
30744;BME280;17486;46.738;7.622;2022-07-29T07:19:49;95206.47;;;22.38;52.51
30744;BME280;17486;46.738;7.622;2022-07-29T07:22:14;95241.53;;;22.68;52.44
30744;BME280;17486;46.738;7.622;2022-07-29T07:24:40;95211.53;;;22.49;52.66
30744;BME280;17486;46.738;7.622;2022-07-29T07:27:05;95248.75;;;22.76;53.07
30744;BME280;17486;46.738;7.622;2022-07-29T07:29:30;95204.81;;;22.55;53.32
30744;BME280;17486;46.738;7.622;2022-07-29T07:31:57;95243.44;;;22.76;53.40
30744;BME280;17486;46.738;7.622;2022-07-29T07:34:22;95195.72;;;22.58;53.61
30744;BME280;17486;46.738;7.622;2022-07-29T07:36:48;95202.53;;;22.60;53.32
30744;BME280;17486;46.738;7.622;2022-07-29T07:39:13;95215.78;;;22.78;53.49
30744;BME280;17486;46.738;7.622;2022-07-29T07:41:39;95232.19;;;22.82;53.51
30744;BME280;17486;46.738;7.622;2022-07-29T07:44:04;95251.63;;;22.82;53.70
30744;BME280;17486;46.738;7.622;2022-07-29T07:46:30;95246.69;;;22.88;53.44
30744;BME280;17486;46.738;7.622;2022-07-29T07:48:55;95206.31;;;22.76;53.12
30744;BME280;17486;46.738;7.622;2022-07-29T07:51:21;95209.09;;;22.92;52.81
30744;BME280;17486;46.738;7.622;2022-07-29T07:53:46;95194.78;;;22.85;52.91
30744;BME280;17486;46.738;7.622;2022-07-29T07:56:15;95205.25;;;22.87;52.65
30744;BME280;17486;46.738;7.622;2022-07-29T07:58:41;95233.72;;;23.02;52.81
30744;BME280;17486;46.738;7.622;2022-07-29T08:01:07;95240.38;;;23.07;52.44
30744;BME280;17486;46.738;7.622;2022-07-29T08:03:32;95222.28;;;23.02;52.36
30744;BME280;17486;46.738;7.622;2022-07-29T08:05:58;95200.38;;;22.82;52.06
30744;BME280;17486;46.738;7.622;2022-07-29T08:08:23;95232.78;;;23.12;51.96
30744;BME280;17486;46.738;7.622;2022-07-29T08:10:49;95227.72;;;23.18;51.69
30744;BME280;17486;46.738;7.622;2022-07-29T08:13:18;95228.78;;;23.26;51.63
30744;BME280;17486;46.738;7.622;2022-07-29T08:15:44;95231.31;;;23.35;50.71
30744;BME280;17486;46.738;7.622;2022-07-29T08:18:11;95204.13;;;23.33;50.02
30744;BME280;17486;46.738;7.622;2022-07-29T08:20:37;95222.34;;;23.55;50.02
30744;BME280;17486;46.738;7.622;2022-07-29T08:23:03;95221.91;;;23.67;50.63
30744;BME280;17486;46.738;7.622;2022-07-29T08:25:29;95186.56;;;23.41;50.63
30744;BME280;17486;46.738;7.622;2022-07-29T08:27:55;95220.88;;;23.60;50.60
30744;BME280;17486;46.738;7.622;2022-07-29T08:30:20;95193.13;;;23.55;50.68
30744;BME280;17486;46.738;7.622;2022-07-29T08:32:47;95235.09;;;23.85;50.50
30744;BME280;17486;46.738;7.622;2022-07-29T08:35:13;95188.38;;;23.66;50.13
30744;BME280;17486;46.738;7.622;2022-07-29T08:37:38;95204.03;;;23.78;49.89
30744;BME280;17486;46.738;7.622;2022-07-29T08:40:04;95239.84;;;24.00;49.79
30744;BME280;17486;46.738;7.622;2022-07-29T08:42:31;95239.38;;;24.05;49.52
30744;BME280;17486;46.738;7.622;2022-07-29T08:44:57;95204.47;;;23.91;49.32
30744;BME280;17486;46.738;7.622;2022-07-29T08:47:23;95194.81;;;23.90;49.59
30744;BME280;17486;46.738;7.622;2022-07-29T08:49:51;95194.53;;;24.02;49.57
30744;BME280;17486;46.738;7.622;2022-07-29T08:52:17;95196.41;;;24.09;49.51
30744;BME280;17486;46.738;7.622;2022-07-29T08:54:43;95231.34;;;24.39;49.25
30744;BME280;17486;46.738;7.622;2022-07-29T08:57:12;95187.81;;;24.24;49.05
30744;BME280;17486;46.738;7.622;2022-07-29T08:59:40;95189.78;;;24.30;47.96
30744;BME280;17486;46.738;7.622;2022-07-29T09:02:15;95201.91;;;24.24;47.65
30744;BME280;17486;46.738;7.622;2022-07-29T09:04:43;95230.53;;;24.39;47.70
30744;BME280;17486;46.738;7.622;2022-07-29T09:07:10;95208.00;;;24.08;47.80
30744;BME280;17486;46.738;7.622;2022-07-29T09:09:39;95249.22;;;24.21;48.07
30744;BME280;17486;46.738;7.622;2022-07-29T09:12:05;95255.88;;;24.25;47.70
30744;BME280;17486;46.738;7.622;2022-07-29T09:14:33;95238.38;;;24.06;47.82
30744;BME280;17486;46.738;7.622;2022-07-29T09:16:59;95270.50;;;24.21;48.12
30744;BME280;17486;46.738;7.622;2022-07-29T09:19:30;95256.34;;;24.12;48.66
30744;BME280;17486;46.738;7.622;2022-07-29T09:21:57;95250.38;;;24.10;49.71
30744;BME280;17486;46.738;7.622;2022-07-29T09:24:35;95239.72;;;24.10;50.14
30744;BME280;17486;46.738;7.622;2022-07-29T09:27:21;95264.06;;;24.31;50.63
30744;BME280;17486;46.738;7.622;2022-07-29T09:29:56;95259.69;;;24.22;51.47
30744;BME280;17486;46.738;7.622;2022-07-29T09:32:22;95221.97;;;23.84;52.48
30744;BME280;17486;46.738;7.622;2022-07-29T09:34:47;95222.31;;;23.81;53.43
30744;BME280;17486;46.738;7.622;2022-07-29T09:37:26;95212.31;;;23.75;53.92
30744;BME280;17486;46.738;7.622;2022-07-29T09:39:51;95253.56;;;23.87;54.54
30744;BME280;17486;46.738;7.622;2022-07-29T09:42:28;95237.88;;;23.76;54.18
30744;BME280;17486;46.738;7.622;2022-07-29T09:44:54;95205.88;;;23.51;54.14
30744;BME280;17486;46.738;7.622;2022-07-29T09:47:19;95245.66;;;23.69;54.12
30744;BME280;17486;46.738;7.622;2022-07-29T09:50:01;95244.81;;;23.68;53.81
30744;BME280;17486;46.738;7.622;2022-07-29T09:52:28;95203.22;;;23.51;54.12
30744;BME280;17486;46.738;7.622;2022-07-29T09:55:08;95230.44;;;23.79;54.83
30744;BME280;17486;46.738;7.622;2022-07-29T09:57:33;95237.09;;;23.83;54.32
30744;BME280;17486;46.738;7.622;2022-07-29T10:00:05;95214.59;;;23.70;53.85
30744;BME280;17486;46.738;7.622;2022-07-29T10:02:34;95241.25;;;23.86;54.25
30744;BME280;17486;46.738;7.622;2022-07-29T10:05:03;95204.50;;;23.73;54.72
30744;BME280;17486;46.738;7.622;2022-07-29T10:10:10;95230.25;;;24.07;55.23
30744;BME280;17486;46.738;7.622;2022-07-29T10:12:48;95225.47;;;24.19;54.96
30744;BME280;17486;46.738;7.622;2022-07-29T10:15:15;95250.44;;;24.34;55.03
30744;BME280;17486;46.738;7.622;2022-07-29T10:17:41;95205.59;;;24.31;55.19
30744;BME280;17486;46.738;7.622;2022-07-29T10:20:07;95228.56;;;24.57;53.56
30744;BME280;17486;46.738;7.622;2022-07-29T10:22:33;95231.59;;;24.71;52.36
30744;BME280;17486;46.738;7.622;2022-07-29T10:24:59;95235.28;;;24.78;51.55
30744;BME280;17486;46.738;7.622;2022-07-29T10:27:24;95218.84;;;24.91;50.64
30744;BME280;17486;46.738;7.622;2022-07-29T10:29:50;95213.84;;;25.04;50.02
30744;BME280;17486;46.738;7.622;2022-07-29T10:38:10;95247.28;;;25.07;51.03
30744;BME280;17486;46.738;7.622;2022-07-29T10:43:50;95226.59;;;24.59;51.97
30744;BME280;17486;46.738;7.622;2022-07-29T10:46:17;95225.25;;;24.55;51.96
30744;BME280;17486;46.738;7.622;2022-07-29T10:49:06;95252.84;;;24.62;52.01
30744;BME280;17486;46.738;7.622;2022-07-29T10:54:42;95211.06;;;24.30;51.88
30744;BME280;17486;46.738;7.622;2022-07-29T11:05:15;95231.25;;;24.06;52.24
30744;BME280;17486;46.738;7.622;2022-07-29T11:10:38;95265.56;;;23.91;52.78
30744;BME280;17486;46.738;7.622;2022-07-29T11:13:03;95274.13;;;23.85;53.24
30744;BME280;17486;46.738;7.622;2022-07-29T11:15:52;95310.75;;;23.99;53.07
30744;BME280;17486;46.738;7.622;2022-07-29T11:18:18;95320.03;;;23.95;53.65
30744;BME280;17486;46.738;7.622;2022-07-29T11:20:45;95322.38;;;23.98;54.02
30744;BME280;17486;46.738;7.622;2022-07-29T11:23:32;95277.75;;;23.84;54.78
30744;BME280;17486;46.738;7.622;2022-07-29T11:28:39;95308.78;;;24.02;54.90
30744;BME280;17486;46.738;7.622;2022-07-29T11:31:13;95286.25;;;23.88;54.77
30744;BME280;17486;46.738;7.622;2022-07-29T11:33:38;95313.13;;;23.84;54.87
30744;BME280;17486;46.738;7.622;2022-07-29T11:36:13;95283.63;;;23.43;55.13
30744;BME280;17486;46.738;7.622;2022-07-29T11:38:39;95293.88;;;23.38;55.71
30744;BME280;17486;46.738;7.622;2022-07-29T11:41:31;95297.25;;;23.22;56.43
30744;BME280;17486;46.738;7.622;2022-07-29T11:44:02;95270.84;;;23.02;57.06
30744;BME280;17486;46.738;7.622;2022-07-29T11:46:47;95296.78;;;23.09;56.72
30744;BME280;17486;46.738;7.622;2022-07-29T11:49:21;95300.03;;;23.02;56.48
30744;BME280;17486;46.738;7.622;2022-07-29T11:51:56;95262.44;;;22.89;56.03
30744;BME280;17486;46.738;7.622;2022-07-29T11:54:26;95292.84;;;23.13;55.83
30744;BME280;17486;46.738;7.622;2022-07-29T11:56:53;95286.41;;;23.15;55.65
30744;BME280;17486;46.738;7.622;2022-07-29T11:59:20;95285.28;;;23.18;55.37
30744;BME280;17486;46.738;7.622;2022-07-29T12:01:53;95288.25;;;23.15;55.39
30744;BME280;17486;46.738;7.622;2022-07-29T12:04:18;95278.63;;;23.14;55.59
30744;BME280;17486;46.738;7.622;2022-07-29T12:06:52;95288.91;;;23.17;56.26
30744;BME280;17486;46.738;7.622;2022-07-29T12:09:18;95289.75;;;23.17;56.09
30744;BME280;17486;46.738;7.622;2022-07-29T12:11:45;95273.88;;;23.08;56.47
30744;BME280;17486;46.738;7.622;2022-07-29T12:14:27;95307.63;;;23.33;56.22
30744;BME280;17486;46.738;7.622;2022-07-29T12:16:53;95276.72;;;23.24;55.82
30744;BME280;17486;46.738;7.622;2022-07-29T12:19:19;95305.41;;;23.47;55.81
30744;BME280;17486;46.738;7.622;2022-07-29T12:21:52;95294.34;;;23.51;55.97
30744;BME280;17486;46.738;7.622;2022-07-29T12:24:20;95298.91;;;23.67;55.51
30744;BME280;17486;46.738;7.622;2022-07-29T12:26:54;95309.53;;;23.67;55.15
30744;BME280;17486;46.738;7.622;2022-07-29T12:29:20;95311.44;;;23.75;54.98
30744;BME280;17486;46.738;7.622;2022-07-29T12:31:51;95298.97;;;23.76;55.33
30744;BME280;17486;46.738;7.622;2022-07-29T12:34:20;95258.06;;;23.68;56.07
30744;BME280;17486;46.738;7.622;2022-07-29T12:36:47;95267.78;;;23.78;56.32
30744;BME280;17486;46.738;7.622;2022-07-29T12:39:15;95295.63;;;24.00;56.40
30744;BME280;17486;46.738;7.622;2022-07-29T12:41:41;95297.47;;;23.99;55.47
30744;BME280;17486;46.738;7.622;2022-07-29T12:44:07;95311.69;;;23.90;55.44
30744;BME280;17486;46.738;7.622;2022-07-29T12:46:32;95272.63;;;23.56;56.12
30744;BME280;17486;46.738;7.622;2022-07-29T12:48:57;95314.38;;;23.72;56.90
30744;BME280;17486;46.738;7.622;2022-07-29T12:51:39;95316.16;;;23.63;57.19
30744;BME280;17486;46.738;7.622;2022-07-29T12:54:09;95318.94;;;23.62;57.46
30744;BME280;17486;46.738;7.622;2022-07-29T12:56:43;95315.22;;;23.46;57.60
30744;BME280;17486;46.738;7.622;2022-07-29T12:59:20;95290.25;;;23.21;58.18
30744;BME280;17486;46.738;7.622;2022-07-29T13:01:48;95326.44;;;23.40;58.60
30744;BME280;17486;46.738;7.622;2022-07-29T13:04:26;95335.84;;;23.34;58.75
30744;BME280;17486;46.738;7.622;2022-07-29T13:07:23;95353.72;;;23.32;59.33
30744;BME280;17486;46.738;7.622;2022-07-29T13:09:48;95387.31;;;23.24;59.90
30744;BME280;17486;46.738;7.622;2022-07-29T13:12:14;95379.16;;;22.89;59.87
30744;BME280;17486;46.738;7.622;2022-07-29T13:14:44;95372.84;;;22.62;58.64
30744;BME280;17486;46.738;7.622;2022-07-29T13:17:15;95414.41;;;22.24;58.34
30744;BME280;17486;46.738;7.622;2022-07-29T13:19:43;95379.38;;;21.93;58.67
30744;BME280;17486;46.738;7.622;2022-07-29T13:22:13;95438.72;;;22.19;58.31
30744;BME280;17486;46.738;7.622;2022-07-29T13:27:19;95424.50;;;22.21;57.49
30744;BME280;17486;46.738;7.622;2022-07-29T13:29:45;95438.97;;;22.16;57.67
30744;BME280;17486;46.738;7.622;2022-07-29T13:32:11;95429.25;;;22.07;57.57
30744;BME280;17486;46.738;7.622;2022-07-29T13:34:37;95443.31;;;22.17;58.67
30744;BME280;17486;46.738;7.622;2022-07-29T13:37:02;95451.69;;;22.13;59.22
30744;BME280;17486;46.738;7.622;2022-07-29T13:39:28;95444.88;;;22.10;59.42
30744;BME280;17486;46.738;7.622;2022-07-29T13:41:53;95408.94;;;21.78;59.64
30744;BME280;17486;46.738;7.622;2022-07-29T13:44:19;95389.72;;;21.66;59.80
30744;BME280;17486;46.738;7.622;2022-07-29T13:46:44;95449.06;;;21.93;59.74
30744;BME280;17486;46.738;7.622;2022-07-29T13:49:10;95409.63;;;21.70;60.10
30744;BME280;17486;46.738;7.622;2022-07-29T13:51:36;95446.00;;;21.88;60.47
30744;BME280;17486;46.738;7.622;2022-07-29T13:54:02;95453.53;;;21.83;60.62